This is the latest recevied weather packets stored in our database for station/object YT6PT-8. If no packets are shown the sender has not sent any weather packets the latest 10 day(s).
| Time | Temp. | Humidity | Pressure | Rain* | Wind** | Luminosity | Snow |
|---|---|---|---|---|---|---|---|
| 1787724332 | 18.33° C | 79% | 1007.7 hPa | 0 mm | 1.79 m/s, 22° | - | - |
| 1787724045 | 18.33° C | 79% | 1007.7 hPa | 0 mm | 1.79 m/s, 22° | - | - |
| 1787723732 | 19.44° C | 76% | 1007.7 hPa | 0 mm | 0.89 m/s, 22° | - | - |
| 1787723431 | 19.44° C | 76% | 1007.7 hPa | 0 mm | 0.89 m/s, 22° | - | - |
| 1787723132 | 20.56° C | 71% | 1007.4 hPa | 0 mm | 1.79 m/s, 45° | - | - |
| 1787722840 | 20.56° C | 71% | 1007.4 hPa | 0 mm | 1.79 m/s, 45° | - | - |
| 1787722532 | 21.67° C | 65% | 1007.4 hPa | 0 mm | 1.79 m/s, 68° | - | - |
| 1787722243 | 21.67° C | 65% | 1007.4 hPa | 0 mm | 1.79 m/s, 68° | - | - |
| 1787721951 | 21.11° C | 64% | 1007.6 hPa | 0 mm | 0 m/s | - | - |
| 1787721655 | 21.11° C | 64% | 1007.6 hPa | 0 mm | 0 m/s | - | - |
| 1787721350 | 18.89° C | 71% | 1007.4 hPa | 0 mm | 0 m/s | - | - |
| 1787721033 | 18.89° C | 71% | 1007.4 hPa | 0 mm | 0 m/s | - | - |
| 1787720730 | 19.44° C | 73% | 1007.4 hPa | 0 mm | 0 m/s | - | - |
| 1787720444 | 19.44° C | 73% | 1007.4 hPa | 0 mm | 0 m/s | - | - |
| 1787720131 | 19.44° C | 71% | 1007.3 hPa | 0 mm | 0 m/s | - | - |
| 1787719849 | 19.44° C | 71% | 1007.3 hPa | 0 mm | 0 m/s | - | - |
| 1787719548 | 19.44° C | 70% | 1007.2 hPa | 0 mm | 0 m/s | - | - |
| 1787719254 | 19.44° C | 70% | 1007.2 hPa | 0 mm | 0 m/s | - | - |
| 1787718932 | 18.33° C | 72% | 1007.2 hPa | 0 mm | 0 m/s | - | - |
| 1787718631 | 18.33° C | 72% | 1007.2 hPa | 0 mm | 0 m/s | - | - |
| 1787718332 | 17.78° C | 75% | 1007 hPa | 0 mm | 0 m/s | - | - |
| 1787718031 | 17.78° C | 75% | 1007 hPa | 0 mm | 0 m/s | - | - |
| 1787717731 | 17.22° C | 78% | 1006.9 hPa | 0 mm | 0 m/s | - | - |
| 1787717449 | 17.22° C | 78% | 1006.9 hPa | 0 mm | 0 m/s | - | - |
| 1787717148 | 17.22° C | 79% | 1006.9 hPa | 0 mm | 0 m/s | - | - |
* Rain latest hour (hover to see other rain measurements)
** Current wind speed in m/s (hover to see current wind gust speed)